Vemahonesty — 9HA4694 — position and weather

sailwx.info

Track history (hours):
 
Tides and Currents Weather Stations Pressure Air Temp Water Temp Dewpoint Dewpoint Depression Visibility Wind Speed Wind Dir Waves Ship Positions

Vemahonesty

Last reported at 2018-Jul-17 00:15 UTC. Time now 2018-Jul-17 07:30 UTC.
Position N 51°26' W 007°49'.

Length 100 m; draft 5.1 m.

Type: Tanker. MMSI: 248434000.

Date/timePositionNaut miles runAvg speedWind from/ knotsBaromVisibWave heightAir tempDewpointWater temp
2018-Jul-17 00:15N 51°26' W 007°49'911.7
2018-Jul-16 23:30N 51°33' W 007°57'612.0
2018-Jul-16 23:00N 51°38' W 008°03'611.9
2018-Jul-16 22:30N 51°42' W 008°10'611.4
2018-Jul-16 22:00N 51°47' W 008°16'2 4.4
2018-Jul-16 21:30N 51°49' W 008°16'2 4.9
2018-Jul-16 21:00N 51°50' W 008°20'0 0.3
2018-Jul-16 20:25N 51°50' W 008°19'0 0.0
2018-Jul-16 19:58N 51°50' W 008°19'0 0.0
2018-Jul-16 19:28N 51°50' W 008°19'0 0.0
2018-Jul-16 18:58N 51°50' W 008°19'0 0.0
2018-Jul-16 18:28N 51°50' W 008°19'0 0.0
2018-Jul-16 17:55N 51°50' W 008°19'0 0.0
2018-Jul-16 17:28N 51°50' W 008°19'0 0.0
2018-Jul-16 16:58N 51°50' W 008°19'0 0.0
2018-Jul-16 16:28N 51°50' W 008°19'0 0.0
2018-Jul-16 15:58N 51°50' W 008°19'0 0.0
2018-Jul-16 15:29N 51°50' W 008°19'0 0.5
2018-Jul-16 15:00N 51°50' W 008°20'3 6.6
2018-Jul-16 14:30N 51°53' W 008°22'3 5.8
2018-Jul-16 14:01N 51°54' W 008°26'1 0.0
2018-Jul-15 07:25N 51°54' W 008°27'2 4.5
2018-Jul-15 07:00N 51°54' W 008°24'4 8.5
2018-Jul-15 06:30N 51°51' W 008°20'2 4.1
2018-Jul-15 05:58N 51°51' W 008°16'0 0.0
2018-Jul-15 05:28N 51°51' W 008°16'0 0.0
2018-Jul-15 04:58N 51°51' W 008°16'0 0.0
2018-Jul-15 04:28N 51°51' W 008°16'0 0.0
2018-Jul-15 03:58N 51°51' W 008°16'0 0.0
2018-Jul-15 03:28N 51°51' W 008°16'0 0.0
2018-Jul-15 02:58N 51°51' W 008°16'0 0.0
2018-Jul-15 02:28N 51°51' W 008°16'0 0.0
2018-Jul-15 01:58N 51°51' W 008°16'0 0.0
2018-Jul-15 01:28N 51°51' W 008°16'0 0.0
2018-Jul-15 00:58N 51°51' W 008°16'0 0.0
2018-Jul-15 00:28N 51°51' W 008°16'0 0.1
2018-Jul-14 23:58N 51°51' W 008°16'0 0.0
2018-Jul-14 23:28N 51°51' W 008°16'0 0.0
2018-Jul-14 22:58N 51°50' W 008°16'0 0.1
2018-Jul-14 22:28N 51°50' W 008°16'0 0.0
2018-Jul-14 21:58N 51°50' W 008°16'0 0.0
2018-Jul-14 21:28N 51°50' W 008°16'0 0.0
2018-Jul-14 20:58N 51°50' W 008°16'0 0.0
2018-Jul-14 20:28N 51°50' W 008°16'0 0.1
2018-Jul-14 19:58N 51°51' W 008°16'0 0.0
2018-Jul-14 19:28N 51°51' W 008°16'0 0.1
2018-Jul-14 18:58N 51°51' W 008°16'0 0.0
2018-Jul-14 18:28N 51°51' W 008°16'0 0.0
2018-Jul-14 17:58N 51°51' W 008°16'0 0.0
2018-Jul-14 17:28N 51°51' W 008°16'0 0.0
2018-Jul-14 16:58N 51°51' W 008°16'0 0.0
2018-Jul-14 16:28N 51°51' W 008°16'0 0.0
2018-Jul-14 15:58N 51°51' W 008°16'0 0.0
2018-Jul-14 15:28N 51°51' W 008°16'0 0.0
2018-Jul-14 14:58N 51°51' W 008°16'0 0.0
2018-Jul-14 14:28N 51°51' W 008°16'0 0.0
2018-Jul-14 13:28N 51°51' W 008°16'0 0.0
2018-Jul-14 12:58N 51°51' W 008°16'0 0.0
2018-Jul-14 12:28N 51°51' W 008°16'0 0.0
2018-Jul-14 11:58N 51°51' W 008°16'0 0.1
2018-Jul-14 11:28N 51°51' W 008°16'0 0.0
2018-Jul-14 11:00N 51°51' W 008°16'0 0.0
2018-Jul-14 10:30N 51°51' W 008°16'0 0.1
2018-Jul-14 10:00N 51°50' W 008°16'0 0.0
2018-Jul-14 09:30N 51°50' W 008°16'0 0.0
2018-Jul-14 09:00N 51°50' W 008°16'0 0.0
2018-Jul-14 08:30N 51°50' W 008°16'0 0.0
2018-Jul-14 08:00N 51°50' W 008°16'0 0.0
2018-Jul-14 07:30N 51°50' W 008°16'0 0.0
2018-Jul-14 07:00N 51°50' W 008°16'0 0.0
2018-Jul-14 06:30N 51°50' W 008°16'0 0.1
2018-Jul-14 06:00N 51°51' W 008°16'0 0.1
2018-Jul-14 05:30N 51°51' W 008°16'0 0.0
2018-Jul-14 05:01N 51°51' W 008°16'2 4.5
2018-Jul-14 04:30N 51°48' W 008°16'510.5
2018-Jul-14 04:00N 51°44' W 008°12'510.5
2018-Jul-14 03:30N 51°44' W 008°04'611.7
2018-Jul-14 03:01N 51°45' W 007°55'612.4
2018-Jul-14 02:30N 51°47' W 007°45'612.3
2018-Jul-14 02:00N 51°48' W 007°35'612.3
2018-Jul-14 01:30N 51°50' W 007°26'612.1
2018-Jul-14 01:00N 51°52' W 007°16'612.4
2018-Jul-14 00:29N 51°54' W 007°06'712.7
2018-Jul-13 23:58N 51°55' W 006°56'612.6
2018-Jul-13 23:30N 51°57' W 006°47'612.4
2018-Jul-13 23:00N 51°59' W 006°37'611.8
2018-Jul-13 22:30N 52°02' W 006°29'611.5
2018-Jul-13 22:00N 52°05' W 006°22'611.1
2018-Jul-13 21:30N 52°08' W 006°14'5 9.8
2018-Jul-13 21:00N 52°11' W 006°08'5 9.2
2018-Jul-13 20:30N 52°16' W 006°06'5 9.2
2018-Jul-13 20:00N 52°20' W 006°02'5 9.0
2018-Jul-13 19:30N 52°24' W 005°58'2510.5
2018-Jul-13 17:08N 52°44' W 005°36'212.0
2018-Jul-13 17:00N 52°46' W 005°35'812.9
2018-Jul-13 16:22N 52°53' W 005°28'7312.3
2018-Jul-13 10:24N 53°33' W 003°45'410.7
2018-Jul-13 10:00N 53°33' W 003°38'510.5
2018-Jul-13 09:30N 53°33' W 003°29'510.3
2018-Jul-13 09:00N 53°33' W 003°21'4 7.7
2018-Jul-13 08:30N 53°31' W 003°14'5 9.4
2018-Jul-13 08:00N 53°31' W 003°07'2 3.6
2018-Jul-13 07:31N 53°30' W 003°05'2 4.7
2018-Jul-13 07:00N 53°28' W 003°03'1 2.4
2018-Jul-13 06:31N 53°27' W 003°01'0 0.0
2018-Jul-13 06:00N 53°27' W 003°01'1 1.1
2018-Jul-13 05:28N 53°28' W 003°01'0 0.2
2018-Jul-13 04:55N 53°28' W 003°02'0 0.0
2018-Jul-13 04:28N 53°28' W 003°02'0 0.0
2018-Jul-13 03:55N 53°28' W 003°02'0 0.0
2018-Jul-13 03:28N 53°28' W 003°02'0 0.0
2018-Jul-13 02:58N 53°28' W 003°02'0 0.0
2018-Jul-13 02:25N 53°28' W 003°02'0 0.0
2018-Jul-13 01:58N 53°28' W 003°02'0 0.0
2018-Jul-13 01:28N 53°28' W 003°02'0 0.0
2018-Jul-13 00:58N 53°28' W 003°02'0 0.0
2018-Jul-13 00:28N 53°28' W 003°02'0 0.0
2018-Jul-12 23:58N 53°28' W 003°02'0 0.0
2018-Jul-12 23:19N 53°28' W 003°02'0 0.0
2018-Jul-12 22:58N 53°28' W 003°02'0 0.0
2018-Jul-12 22:28N 53°28' W 003°02'0 0.0
2018-Jul-12 21:58N 53°28' W 003°02'0 0.0
2018-Jul-12 21:28N 53°28' W 003°02'0 0.0
2018-Jul-12 20:58N 53°28' W 003°02'0 0.3
2018-Jul-12 20:30N 53°28' W 003°02'1 1.2
2018-Jul-12 20:00N 53°27' W 003°01'0 0.1
2018-Jul-12 19:30N 53°27' W 003°01'1 1.3
2018-Jul-12 19:00N 53°27' W 003°02'4 7.4
2018-Jul-12 18:30N 53°30' W 003°06'5 9.8
2018-Jul-12 18:00N 53°31' W 003°14'1 1.0
2018-Jul-12 17:30N 53°31' W 003°13'5 9.2
2018-Jul-12 16:58N 53°29' W 003°05'3 6.8
2018-Jul-12 16:30N 53°27' W 003°02'3 5.5
2018-Jul-12 16:00N 53°24' W 003°00'0 0.0
2018-Jul-12 15:30N 53°24' W 003°00'0 0.0
2018-Jul-12 15:00N 53°24' W 003°00'0 0.0
2018-Jul-12 14:27N 53°24' W 003°00'0 0.0
2018-Jul-12 14:00N 53°24' W 003°00'0 0.0
2018-Jul-12 13:30N 53°24' W 003°00'0 0.0
2018-Jul-12 12:57N 53°24' W 003°00'0 0.0
2018-Jul-12 12:30N 53°24' W 003°00'0 0.0
2018-Jul-12 11:54N 53°24' W 003°00'0 0.0
2018-Jul-12 11:30N 53°24' W 003°00'0 0.0
2018-Jul-12 11:00N 53°24' W 003°00'0 0.5
2018-Jul-12 10:30N 53°25' W 003°00'0 0.2
2018-Jul-12 10:00N 53°25' W 003°01'1 2.8
2018-Jul-12 09:30N 53°23' W 002°60'1 3.0
2018-Jul-12 09:00N 53°22' W 002°58'0 0.1
2018-Jul-12 08:30N 53°22' W 002°58'0 0.1
2018-Jul-12 08:00N 53°22' W 002°58'0 0.1
2018-Jul-12 07:31N 53°22' W 002°58'3 5.6
2018-Jul-12 07:00N 53°24' W 003°01'1 2.7
2018-Jul-12 06:31N 53°26' W 003°01'612.0
2018-Jul-12 06:00N 53°31' W 003°07'611.3
2018-Jul-12 05:30N 53°31' W 003°16'4 8.8
2018-Jul-12 05:00N 53°30' W 003°23'3 5.0
2018-Jul-12 04:25N 53°27' W 003°20'0 0.1
2018-Jul-12 03:58N 53°27' W 003°20'0 0.1
2018-Jul-12 03:25N 53°27' W 003°20'0 0.0
2018-Jul-12 02:58N 53°27' W 003°20'0 0.0
2018-Jul-12 02:28N 53°27' W 003°20'0 0.1
2018-Jul-12 01:58N 53°27' W 003°20'0 0.0
2018-Jul-12 01:28N 53°27' W 003°20'0 0.0
2018-Jul-12 00:58N 53°27' W 003°20'0 0.0
2018-Jul-12 00:28N 53°27' W 003°20'0 0.0
2018-Jul-11 23:58N 53°27' W 003°20'0 0.0
2018-Jul-11 23:25N 53°27' W 003°20'0 0.1
2018-Jul-11 22:58N 53°27' W 003°20'0 0.1
2018-Jul-11 22:28N 53°27' W 003°20'0 0.1
2018-Jul-11 21:58N 53°27' W 003°20'0 0.0
2018-Jul-11 21:28N 53°27' W 003°20'0 0.0
2018-Jul-11 20:58N 53°27' W 003°20'0 0.0
2018-Jul-11 20:28N 53°27' W 003°20'0 0.0
2018-Jul-11 19:55N 53°27' W 003°20'0 0.0
2018-Jul-11 19:28N 53°27' W 003°20'0 0.0
2018-Jul-11 18:58N 53°27' W 003°20'0 0.0
2018-Jul-11 18:28N 53°27' W 003°20'0 0.0
2018-Jul-11 17:58N 53°27' W 003°20'0 0.0
2018-Jul-11 17:25N 53°27' W 003°20'0 0.0
2018-Jul-11 16:55N 53°27' W 003°20'0 0.0
2018-Jul-11 16:28N 53°27' W 003°20'0 0.1
2018-Jul-11 15:58N 53°27' W 003°20'0 0.1
2018-Jul-11 15:28N 53°27' W 003°20'0 0.1
2018-Jul-11 14:58N 53°27' W 003°20'0 0.0
2018-Jul-11 14:28N 53°27' W 003°20'0 0.0
2018-Jul-11 13:58N 53°27' W 003°20'2 4.1
2018-Jul-11 13:30N 53°28' W 003°23'5 9.6
2018-Jul-11 13:00N 53°30' W 003°31'5 9.2
2018-Jul-11 12:30N 53°31' W 003°38'5 9.6
2018-Jul-11 12:00N 53°31' W 003°46'5 9.8
2018-Jul-11 11:30N 53°30' W 003°54'5 9.7
2018-Jul-11 11:00N 53°30' W 004°03'6410.3
2018-Jul-11 04:47N 52°43' W 005°14'411.7
2018-Jul-11 04:29N 52°39' W 005°16'2510.3
2018-Jul-11 02:04N 52°16' W 005°31'1 8.9
2018-Jul-11 02:00N 52°16' W 005°31'4 8.8
2018-Jul-11 01:30N 52°11' W 005°34'5 8.7
2018-Jul-11 00:58N 52°07' W 005°36'4 8.3
2018-Jul-11 00:29N 52°03' W 005°39'4 8.0
2018-Jul-11 00:00N 51°60' W 005°41'7 8.6
2018-Jul-10 23:08N 51°53' W 005°45'1 9.0
2018-Jul-10 23:00N 51°52' W 005°46'5 9.4
2018-Jul-10 22:27N 51°47' W 005°48'610.0
2018-Jul-10 21:52N 51°41' W 005°51'1110.3
2018-Jul-10 20:46N 51°30' W 005°52'310.5
2018-Jul-10 20:30N 51°27' W 005°52'122 8.2
2018-Jul-10 05:40N 49°55' W 003°45'311.9
2018-Jul-10 05:26N 49°56' W 003°41'511.6
2018-Jul-10 05:00N 49°57' W 003°34'611.4
2018-Jul-10 04:30N 49°57' W 003°25'611.2
2018-Jul-10 03:56N 49°58' W 003°15'511.1
2018-Jul-10 03:30N 49°59' W 003°08'611.3
2018-Jul-10 03:00N 50°00' W 002°59'611.6
2018-Jul-10 02:30N 50°01' W 002°50'611.9
2018-Jul-10 02:00N 50°03' W 002°41'4013.4
2018-Jul-09 22:59N 50°14' W 001°41'814.6
2018-Jul-09 22:28N 50°16' W 001°29'2114.3
2018-Jul-09 20:58N 50°22' W 000°57'613.3
2018-Jul-09 20:30N 50°24' W 000°48'612.3
2018-Jul-09 20:00N 50°25' W 000°38'611.9
2018-Jul-09 19:31N 50°27' W 000°30'711.3
2018-Jul-09 18:53N 50°29' W 000°19'510.9
2018-Jul-09 18:25N 50°30' W 000°11'610.7
2018-Jul-09 17:50N 50°32' W 000°02'510.7
2018-Jul-09 17:21N 50°33' E 000°06'610.8
2018-Jul-09 16:45N 50°35' E 000°16'311.0
2018-Jul-09 16:30N 50°36' E 000°20'611.3
2018-Jul-09 16:01N 50°37' E 000°29'612.0
2018-Jul-09 15:30N 50°40' E 000°37'612.6
2018-Jul-09 15:01N 50°43' E 000°45'713.1
2018-Jul-09 14:30N 50°47' E 000°54'713.4
2018-Jul-09 14:00N 50°51' E 001°02'713.2
2018-Jul-09 13:30N 50°55' E 001°10'713.0
2018-Jul-09 13:00N 51°01' E 001°17'611.9
2018-Jul-09 12:30N 51°06' E 001°20'1 0.3
2018-Jul-09 08:01N 51°07' E 001°19'0 0.0
2018-Jul-09 07:59N 51°07' E 001°19'1 1.9
2018-Jul-09 07:30N 51°07' E 001°20'4 8.1
2018-Jul-09 07:00N 51°07' E 001°27'3 5.0
2018-Jul-09 06:30N 51°08' E 001°31'3 6.2
2018-Jul-09 06:00N 51°10' E 001°34'4 8.4
2018-Jul-09 05:30N 51°13' E 001°39'612.4
2018-Jul-09 05:00N 51°19' E 001°42'612.6
2018-Jul-09 04:30N 51°25' E 001°45'4 8.5
2018-Jul-09 04:00N 51°29' E 001°45'0 0.0
2018-Jul-09 03:30N 51°29' E 001°45'0 0.0
2018-Jul-09 03:00N 51°29' E 001°45'0 0.0
2018-Jul-09 02:30N 51°29' E 001°45'0 0.0
2018-Jul-09 02:00N 51°29' E 001°45'0 0.0
2018-Jul-09 01:30N 51°29' E 001°45'0 0.2
2018-Jul-09 01:00N 51°29' E 001°45'0 0.1
2018-Jul-09 00:30N 51°29' E 001°45'0 0.0
2018-Jul-09 00:00N 51°29' E 001°45'0 0.0
2018-Jul-08 23:30N 51°29' E 001°45'0 0.0
2018-Jul-08 23:00N 51°29' E 001°45'0 0.0
2018-Jul-08 22:30N 51°29' E 001°45'0 0.1
2018-Jul-08 22:00N 51°29' E 001°45'0 0.0
2018-Jul-08 21:30N 51°29' E 001°45'0 0.0
2018-Jul-08 21:00N 51°29' E 001°45'0 0.0
2018-Jul-08 20:30N 51°29' E 001°45'0 0.1
2018-Jul-08 20:00N 51°29' E 001°45'0 0.1
2018-Jul-08 19:30N 51°29' E 001°45'0 0.0
2018-Jul-08 19:00N 51°29' E 001°45'0 0.3
2018-Jul-08 18:30N 51°29' E 001°45'1 1.3
2018-Jul-08 18:00N 51°29' E 001°46'0 0.1
2018-Jul-08 17:30N 51°29' E 001°46'0 0.0
2018-Jul-08 16:12N 51°29' E 001°46'0 0.0
2018-Jul-08 16:00N 51°29' E 001°46'0 0.0
2018-Jul-08 15:27N 51°29' E 001°46'0 0.0
2018-Jul-08 14:54N 51°29' E 001°46'0 0.0
2018-Jul-08 14:30N 51°29' E 001°46'0 0.0
2018-Jul-08 13:57N 51°29' E 001°46'0 0.0
2018-Jul-08 13:24N 51°29' E 001°46'0 0.0
2018-Jul-08 12:57N 51°29' E 001°46'0 0.3
2018-Jul-08 12:24N 51°29' E 001°46'0 0.2
2018-Jul-08 12:00N 51°29' E 001°46'0 0.1
2018-Jul-08 11:30N 51°29' E 001°46'0 0.0
2018-Jul-08 11:00N 51°29' E 001°46'0 0.0
2018-Jul-08 10:30N 51°29' E 001°46'0 0.0
2018-Jul-08 09:51N 51°29' E 001°46'0 0.0
2018-Jul-08 09:27N 51°29' E 001°46'0 0.0
2018-Jul-08 08:57N 51°29' E 001°46'0 0.0
2018-Jul-08 08:30N 51°29' E 001°46'0 0.1
2018-Jul-08 08:00N 51°29' E 001°46'0 0.1
2018-Jul-08 07:30N 51°29' E 001°46'0 0.1
2018-Jul-08 07:00N 51°29' E 001°46'0 0.1
2018-Jul-08 06:21N 51°29' E 001°46'0 0.0
2018-Jul-08 06:00N 51°29' E 001°46'0 0.1
2018-Jul-08 05:30N 51°29' E 001°46'0 0.0
2018-Jul-08 05:00N 51°29' E 001°46'0 0.0
2018-Jul-08 04:30N 51°29' E 001°46'1 2.2
2018-Jul-08 04:00N 51°28' E 001°47'4 8.2
2018-Jul-08 03:30N 51°28' E 001°54'510.9
2018-Jul-08 03:00N 51°26' E 002°02'611.3
2018-Jul-08 02:30N 51°23' E 002°10'611.5
2018-Jul-08 02:00N 51°21' E 002°18'612.0
2018-Jul-08 01:30N 51°22' E 002°27'611.9
2018-Jul-08 01:00N 51°22' E 002°37'611.4
2018-Jul-08 00:30N 51°22' E 002°46'611.1
2018-Jul-08 00:00N 51°23' E 002°55'611.5
2018-Jul-07 23:28N 51°24' E 003°05'611.9
2018-Jul-07 22:59N 51°25' E 003°14'611.9
2018-Jul-07 22:30N 51°25' E 003°23'612.1
2018-Jul-07 22:00N 51°26' E 003°32'510.2
2018-Jul-07 21:30N 51°27' E 003°40'0 0.1
2018-Jul-07 20:57N 51°27' E 003°40'0 0.0
2018-Jul-07 20:18N 51°27' E 003°40'0 0.0
2018-Jul-07 19:48N 51°27' E 003°40'0 0.0
2018-Jul-07 19:27N 51°27' E 003°40'0 0.0
2018-Jul-07 18:57N 51°27' E 003°40'0 0.0
2018-Jul-07 18:24N 51°27' E 003°40'0 0.0
2018-Jul-07 18:00N 51°27' E 003°40'0 0.0
2018-Jul-07 17:27N 51°27' E 003°40'0 0.0
2018-Jul-07 16:57N 51°27' E 003°40'0 0.0
2018-Jul-07 16:27N 51°27' E 003°40'0 0.0
2018-Jul-07 15:57N 51°27' E 003°40'0 0.0
2018-Jul-07 15:30N 51°27' E 003°40'0 0.0
2018-Jul-07 14:57N 51°27' E 003°40'0 0.0
2018-Jul-07 14:30N 51°27' E 003°40'0 0.0
2018-Jul-07 13:51N 51°27' E 003°40'0 0.0
2018-Jul-07 13:03N 51°27' E 003°40'0 0.0
2018-Jul-07 12:51N 51°27' E 003°40'0 0.0
2018-Jul-07 11:27N 51°27' E 003°40'0 0.0
2018-Jul-07 10:54N 51°27' E 003°40'0 0.0
2018-Jul-07 10:27N 51°27' E 003°40'0 0.0
2018-Jul-07 09:33N 51°27' E 003°40'0 0.0
2018-Jul-07 09:27N 51°27' E 003°40'0 0.0
2018-Jul-07 09:00N 51°27' E 003°40'0 0.0
2018-Jul-07 06:30N 51°27' E 003°40'0 0.0
2018-Jul-07 05:57N 51°27' E 003°40'0 0.0
2018-Jul-07 04:45N 51°27' E 003°40'0 0.1
2018-Jul-07 04:00N 51°27' E 003°40'3 5.4
2018-Jul-07 03:31N 51°26' E 003°37'612.3
2018-Jul-07 03:00N 51°25' E 003°27'611.4
2018-Jul-07 02:30N 51°24' E 003°18'510.9
2018-Jul-07 02:00N 51°24' E 003°09'510.2
2018-Jul-07 01:30N 51°24' E 003°01'510.2
2018-Jul-07 00:59N 51°22' E 002°53'510.5
2018-Jul-07 00:30N 51°22' E 002°45'  
Track history (hours):
 
Tides and Currents Weather Stations Pressure Air Temp Water Temp Dewpoint Dewpoint Depression Visibility Wind Speed Wind Dir Waves Ship Positions

Vemahonesty

Last reported at 2018-Jul-17 00:15 UTC. Time now 2018-Jul-17 07:30 UTC.
Position N 51°26' W 007°49'.

Length 100 m; draft 5.1 m.

Type: Tanker. MMSI: 248434000.

Date/timePositionNaut miles runAvg speedWind from/ knotsBaromVisibWave heightAir tempDewpointWater temp
2018-Jul-17 00:15N 51°26' W 007°49'911.7
2018-Jul-16 23:30N 51°33' W 007°57'612.0
2018-Jul-16 23:00N 51°38' W 008°03'611.9
2018-Jul-16 22:30N 51°42' W 008°10'611.4
2018-Jul-16 22:00N 51°47' W 008°16'2 4.4
2018-Jul-16 21:30N 51°49' W 008°16'2 4.9
2018-Jul-16 21:00N 51°50' W 008°20'0 0.3
2018-Jul-16 20:25N 51°50' W 008°19'0 0.0
2018-Jul-16 19:58N 51°50' W 008°19'0 0.0
2018-Jul-16 19:28N 51°50' W 008°19'0 0.0
2018-Jul-16 18:58N 51°50' W 008°19'0 0.0
2018-Jul-16 18:28N 51°50' W 008°19'0 0.0
2018-Jul-16 17:55N 51°50' W 008°19'0 0.0
2018-Jul-16 17:28N 51°50' W 008°19'0 0.0
2018-Jul-16 16:58N 51°50' W 008°19'0 0.0
2018-Jul-16 16:28N 51°50' W 008°19'0 0.0
2018-Jul-16 15:58N 51°50' W 008°19'0 0.0
2018-Jul-16 15:29N 51°50' W 008°19'0 0.5
2018-Jul-16 15:00N 51°50' W 008°20'3 6.6
2018-Jul-16 14:30N 51°53' W 008°22'3 5.8
2018-Jul-16 14:01N 51°54' W 008°26'1 0.0
2018-Jul-15 07:25N 51°54' W 008°27'2 4.5
2018-Jul-15 07:00N 51°54' W 008°24'4 8.5
2018-Jul-15 06:30N 51°51' W 008°20'2 4.1
2018-Jul-15 05:58N 51°51' W 008°16'0 0.0
2018-Jul-15 05:28N 51°51' W 008°16'0 0.0
2018-Jul-15 04:58N 51°51' W 008°16'0 0.0
2018-Jul-15 04:28N 51°51' W 008°16'0 0.0
2018-Jul-15 03:58N 51°51' W 008°16'0 0.0
2018-Jul-15 03:28N 51°51' W 008°16'0 0.0
2018-Jul-15 02:58N 51°51' W 008°16'0 0.0
2018-Jul-15 02:28N 51°51' W 008°16'0 0.0
2018-Jul-15 01:58N 51°51' W 008°16'0 0.0
2018-Jul-15 01:28N 51°51' W 008°16'0 0.0
2018-Jul-15 00:58N 51°51' W 008°16'0 0.0
2018-Jul-15 00:28N 51°51' W 008°16'0 0.1
2018-Jul-14 23:58N 51°51' W 008°16'0 0.0
2018-Jul-14 23:28N 51°51' W 008°16'0 0.0
2018-Jul-14 22:58N 51°50' W 008°16'0 0.1
2018-Jul-14 22:28N 51°50' W 008°16'0 0.0
2018-Jul-14 21:58N 51°50' W 008°16'0 0.0
2018-Jul-14 21:28N 51°50' W 008°16'0 0.0
2018-Jul-14 20:58N 51°50' W 008°16'0 0.0
2018-Jul-14 20:28N 51°50' W 008°16'0 0.1
2018-Jul-14 19:58N 51°51' W 008°16'0 0.0
2018-Jul-14 19:28N 51°51' W 008°16'0 0.1
2018-Jul-14 18:58N 51°51' W 008°16'0 0.0
2018-Jul-14 18:28N 51°51' W 008°16'0 0.0
2018-Jul-14 17:58N 51°51' W 008°16'0 0.0
2018-Jul-14 17:28N 51°51' W 008°16'0 0.0
2018-Jul-14 16:58N 51°51' W 008°16'0 0.0
2018-Jul-14 16:28N 51°51' W 008°16'0 0.0
2018-Jul-14 15:58N 51°51' W 008°16'0 0.0
2018-Jul-14 15:28N 51°51' W 008°16'0 0.0
2018-Jul-14 14:58N 51°51' W 008°16'0 0.0
2018-Jul-14 14:28N 51°51' W 008°16'0 0.0
2018-Jul-14 13:28N 51°51' W 008°16'0 0.0
2018-Jul-14 12:58N 51°51' W 008°16'0 0.0
2018-Jul-14 12:28N 51°51' W 008°16'0 0.0
2018-Jul-14 11:58N 51°51' W 008°16'0 0.1
2018-Jul-14 11:28N 51°51' W 008°16'0 0.0
2018-Jul-14 11:00N 51°51' W 008°16'0 0.0
2018-Jul-14 10:30N 51°51' W 008°16'0 0.1
2018-Jul-14 10:00N 51°50' W 008°16'0 0.0
2018-Jul-14 09:30N 51°50' W 008°16'0 0.0
2018-Jul-14 09:00N 51°50' W 008°16'0 0.0
2018-Jul-14 08:30N 51°50' W 008°16'0 0.0
2018-Jul-14 08:00N 51°50' W 008°16'0 0.0
2018-Jul-14 07:30N 51°50' W 008°16'0 0.0
2018-Jul-14 07:00N 51°50' W 008°16'0 0.0
2018-Jul-14 06:30N 51°50' W 008°16'0 0.1
2018-Jul-14 06:00N 51°51' W 008°16'0 0.1
2018-Jul-14 05:30N 51°51' W 008°16'0 0.0
2018-Jul-14 05:01N 51°51' W 008°16'2 4.5
2018-Jul-14 04:30N 51°48' W 008°16'510.5
2018-Jul-14 04:00N 51°44' W 008°12'510.5
2018-Jul-14 03:30N 51°44' W 008°04'611.7
2018-Jul-14 03:01N 51°45' W 007°55'612.4
2018-Jul-14 02:30N 51°47' W 007°45'612.3
2018-Jul-14 02:00N 51°48' W 007°35'612.3
2018-Jul-14 01:30N 51°50' W 007°26'612.1
2018-Jul-14 01:00N 51°52' W 007°16'612.4
2018-Jul-14 00:29N 51°54' W 007°06'712.7
2018-Jul-13 23:58N 51°55' W 006°56'612.6
2018-Jul-13 23:30N 51°57' W 006°47'612.4
2018-Jul-13 23:00N 51°59' W 006°37'611.8
2018-Jul-13 22:30N 52°02' W 006°29'611.5
2018-Jul-13 22:00N 52°05' W 006°22'611.1
2018-Jul-13 21:30N 52°08' W 006°14'5 9.8
2018-Jul-13 21:00N 52°11' W 006°08'5 9.2
2018-Jul-13 20:30N 52°16' W 006°06'5 9.2
2018-Jul-13 20:00N 52°20' W 006°02'5 9.0
2018-Jul-13 19:30N 52°24' W 005°58'2510.5
2018-Jul-13 17:08N 52°44' W 005°36'212.0
2018-Jul-13 17:00N 52°46' W 005°35'812.9
2018-Jul-13 16:22N 52°53' W 005°28'7312.3
2018-Jul-13 10:24N 53°33' W 003°45'410.7
2018-Jul-13 10:00N 53°33' W 003°38'510.5
2018-Jul-13 09:30N 53°33' W 003°29'510.3
2018-Jul-13 09:00N 53°33' W 003°21'4 7.7
2018-Jul-13 08:30N 53°31' W 003°14'5 9.4
2018-Jul-13 08:00N 53°31' W 003°07'2 3.6
2018-Jul-13 07:31N 53°30' W 003°05'2 4.7
2018-Jul-13 07:00N 53°28' W 003°03'1 2.4
2018-Jul-13 06:31N 53°27' W 003°01'0 0.0
2018-Jul-13 06:00N 53°27' W 003°01'1 1.1
2018-Jul-13 05:28N 53°28' W 003°01'0 0.2
2018-Jul-13 04:55N 53°28' W 003°02'0 0.0
2018-Jul-13 04:28N 53°28' W 003°02'0 0.0
2018-Jul-13 03:55N 53°28' W 003°02'0 0.0
2018-Jul-13 03:28N 53°28' W 003°02'0 0.0
2018-Jul-13 02:58N 53°28' W 003°02'0 0.0
2018-Jul-13 02:25N 53°28' W 003°02'0 0.0
2018-Jul-13 01:58N 53°28' W 003°02'0 0.0
2018-Jul-13 01:28N 53°28' W 003°02'0 0.0
2018-Jul-13 00:58N 53°28' W 003°02'0 0.0
2018-Jul-13 00:28N 53°28' W 003°02'0 0.0
2018-Jul-12 23:58N 53°28' W 003°02'0 0.0
2018-Jul-12 23:19N 53°28' W 003°02'0 0.0
2018-Jul-12 22:58N 53°28' W 003°02'0 0.0
2018-Jul-12 22:28N 53°28' W 003°02'0 0.0
2018-Jul-12 21:58N 53°28' W 003°02'0 0.0
2018-Jul-12 21:28N 53°28' W 003°02'0 0.0
2018-Jul-12 20:58N 53°28' W 003°02'0 0.3
2018-Jul-12 20:30N 53°28' W 003°02'1 1.2
2018-Jul-12 20:00N 53°27' W 003°01'0 0.1
2018-Jul-12 19:30N 53°27' W 003°01'1 1.3
2018-Jul-12 19:00N 53°27' W 003°02'4 7.4
2018-Jul-12 18:30N 53°30' W 003°06'5 9.8
2018-Jul-12 18:00N 53°31' W 003°14'1 1.0
2018-Jul-12 17:30N 53°31' W 003°13'5 9.2
2018-Jul-12 16:58N 53°29' W 003°05'3 6.8
2018-Jul-12 16:30N 53°27' W 003°02'3 5.5
2018-Jul-12 16:00N 53°24' W 003°00'0 0.0
2018-Jul-12 15:30N 53°24' W 003°00'0 0.0
2018-Jul-12 15:00N 53°24' W 003°00'0 0.0
2018-Jul-12 14:27N 53°24' W 003°00'0 0.0
2018-Jul-12 14:00N 53°24' W 003°00'0 0.0
2018-Jul-12 13:30N 53°24' W 003°00'0 0.0
2018-Jul-12 12:57N 53°24' W 003°00'0 0.0
2018-Jul-12 12:30N 53°24' W 003°00'0 0.0
2018-Jul-12 11:54N 53°24' W 003°00'0 0.0
2018-Jul-12 11:30N 53°24' W 003°00'0 0.0
2018-Jul-12 11:00N 53°24' W 003°00'0 0.5
2018-Jul-12 10:30N 53°25' W 003°00'0 0.2
2018-Jul-12 10:00N 53°25' W 003°01'1 2.8
2018-Jul-12 09:30N 53°23' W 002°60'1 3.0
2018-Jul-12 09:00N 53°22' W 002°58'0 0.1
2018-Jul-12 08:30N 53°22' W 002°58'0 0.1
2018-Jul-12 08:00N 53°22' W 002°58'0 0.1
2018-Jul-12 07:31N 53°22' W 002°58'3 5.6
2018-Jul-12 07:00N 53°24' W 003°01'1 2.7
2018-Jul-12 06:31N 53°26' W 003°01'612.0
2018-Jul-12 06:00N 53°31' W 003°07'611.3
2018-Jul-12 05:30N 53°31' W 003°16'4 8.8
2018-Jul-12 05:00N 53°30' W 003°23'3 5.0
2018-Jul-12 04:25N 53°27' W 003°20'0 0.1
2018-Jul-12 03:58N 53°27' W 003°20'0 0.1
2018-Jul-12 03:25N 53°27' W 003°20'0 0.0
2018-Jul-12 02:58N 53°27' W 003°20'0 0.0
2018-Jul-12 02:28N 53°27' W 003°20'0 0.1
2018-Jul-12 01:58N 53°27' W 003°20'0 0.0
2018-Jul-12 01:28N 53°27' W 003°20'0 0.0
2018-Jul-12 00:58N 53°27' W 003°20'0 0.0
2018-Jul-12 00:28N 53°27' W 003°20'0 0.0
2018-Jul-11 23:58N 53°27' W 003°20'0 0.0
2018-Jul-11 23:25N 53°27' W 003°20'0 0.1
2018-Jul-11 22:58N 53°27' W 003°20'0 0.1
2018-Jul-11 22:28N 53°27' W 003°20'0 0.1
2018-Jul-11 21:58N 53°27' W 003°20'0 0.0
2018-Jul-11 21:28N 53°27' W 003°20'0 0.0
2018-Jul-11 20:58N 53°27' W 003°20'0 0.0
2018-Jul-11 20:28N 53°27' W 003°20'0 0.0
2018-Jul-11 19:55N 53°27' W 003°20'0 0.0
2018-Jul-11 19:28N 53°27' W 003°20'0 0.0
2018-Jul-11 18:58N 53°27' W 003°20'0 0.0
2018-Jul-11 18:28N 53°27' W 003°20'0 0.0
2018-Jul-11 17:58N 53°27' W 003°20'0 0.0
2018-Jul-11 17:25N 53°27' W 003°20'0 0.0
2018-Jul-11 16:55N 53°27' W 003°20'0 0.0
2018-Jul-11 16:28N 53°27' W 003°20'0 0.1
2018-Jul-11 15:58N 53°27' W 003°20'0 0.1
2018-Jul-11 15:28N 53°27' W 003°20'0 0.1
2018-Jul-11 14:58N 53°27' W 003°20'0 0.0
2018-Jul-11 14:28N 53°27' W 003°20'0 0.0
2018-Jul-11 13:58N 53°27' W 003°20'2 4.1
2018-Jul-11 13:30N 53°28' W 003°23'5 9.6
2018-Jul-11 13:00N 53°30' W 003°31'5 9.2
2018-Jul-11 12:30N 53°31' W 003°38'5 9.6
2018-Jul-11 12:00N 53°31' W 003°46'5 9.8
2018-Jul-11 11:30N 53°30' W 003°54'5 9.7
2018-Jul-11 11:00N 53°30' W 004°03'6410.3
2018-Jul-11 04:47N 52°43' W 005°14'411.7
2018-Jul-11 04:29N 52°39' W 005°16'2510.3
2018-Jul-11 02:04N 52°16' W 005°31'1 8.9
2018-Jul-11 02:00N 52°16' W 005°31'4 8.8
2018-Jul-11 01:30N 52°11' W 005°34'5 8.7
2018-Jul-11 00:58N 52°07' W 005°36'4 8.3
2018-Jul-11 00:29N 52°03' W 005°39'4 8.0
2018-Jul-11 00:00N 51°60' W 005°41'7 8.6
2018-Jul-10 23:08N 51°53' W 005°45'1 9.0
2018-Jul-10 23:00N 51°52' W 005°46'5 9.4
2018-Jul-10 22:27N 51°47' W 005°48'610.0
2018-Jul-10 21:52N 51°41' W 005°51'1110.3
2018-Jul-10 20:46N 51°30' W 005°52'310.5
2018-Jul-10 20:30N 51°27' W 005°52'122 8.2
2018-Jul-10 05:40N 49°55' W 003°45'311.9
2018-Jul-10 05:26N 49°56' W 003°41'511.6
2018-Jul-10 05:00N 49°57' W 003°34'611.4
2018-Jul-10 04:30N 49°57' W 003°25'611.2
2018-Jul-10 03:56N 49°58' W 003°15'511.1
2018-Jul-10 03:30N 49°59' W 003°08'611.3
2018-Jul-10 03:00N 50°00' W 002°59'611.6
2018-Jul-10 02:30N 50°01' W 002°50'611.9
2018-Jul-10 02:00N 50°03' W 002°41'4013.4
2018-Jul-09 22:59N 50°14' W 001°41'814.6
2018-Jul-09 22:28N 50°16' W 001°29'2114.3
2018-Jul-09 20:58N 50°22' W 000°57'613.3
2018-Jul-09 20:30N 50°24' W 000°48'612.3
2018-Jul-09 20:00N 50°25' W 000°38'611.9
2018-Jul-09 19:31N 50°27' W 000°30'711.3
2018-Jul-09 18:53N 50°29' W 000°19'510.9
2018-Jul-09 18:25N 50°30' W 000°11'610.7
2018-Jul-09 17:50N 50°32' W 000°02'510.7
2018-Jul-09 17:21N 50°33' E 000°06'610.8
2018-Jul-09 16:45N 50°35' E 000°16'311.0
2018-Jul-09 16:30N 50°36' E 000°20'611.3
2018-Jul-09 16:01N 50°37' E 000°29'612.0
2018-Jul-09 15:30N 50°40' E 000°37'612.6
2018-Jul-09 15:01N 50°43' E 000°45'713.1
2018-Jul-09 14:30N 50°47' E 000°54'713.4
2018-Jul-09 14:00N 50°51' E 001°02'713.2
2018-Jul-09 13:30N 50°55' E 001°10'713.0
2018-Jul-09 13:00N 51°01' E 001°17'611.9
2018-Jul-09 12:30N 51°06' E 001°20'1 0.3
2018-Jul-09 08:01N 51°07' E 001°19'0 0.0
2018-Jul-09 07:59N 51°07' E 001°19'1 1.9
2018-Jul-09 07:30N 51°07' E 001°20'4 8.1
2018-Jul-09 07:00N 51°07' E 001°27'3 5.0
2018-Jul-09 06:30N 51°08' E 001°31'3 6.2
2018-Jul-09 06:00N 51°10' E 001°34'4 8.4
2018-Jul-09 05:30N 51°13' E 001°39'612.4
2018-Jul-09 05:00N 51°19' E 001°42'612.6
2018-Jul-09 04:30N 51°25' E 001°45'4 8.5
2018-Jul-09 04:00N 51°29' E 001°45'0 0.0
2018-Jul-09 03:30N 51°29' E 001°45'0 0.0
2018-Jul-09 03:00N 51°29' E 001°45'0 0.0
2018-Jul-09 02:30N 51°29' E 001°45'0 0.0
2018-Jul-09 02:00N 51°29' E 001°45'0 0.0
2018-Jul-09 01:30N 51°29' E 001°45'0 0.2
2018-Jul-09 01:00N 51°29' E 001°45'0 0.1
2018-Jul-09 00:30N 51°29' E 001°45'0 0.0
2018-Jul-09 00:00N 51°29' E 001°45'0 0.0
2018-Jul-08 23:30N 51°29' E 001°45'0 0.0
2018-Jul-08 23:00N 51°29' E 001°45'0 0.0
2018-Jul-08 22:30N 51°29' E 001°45'0 0.1
2018-Jul-08 22:00N 51°29' E 001°45'0 0.0
2018-Jul-08 21:30N 51°29' E 001°45'0 0.0
2018-Jul-08 21:00N 51°29' E 001°45'0 0.0
2018-Jul-08 20:30N 51°29' E 001°45'0 0.1
2018-Jul-08 20:00N 51°29' E 001°45'0 0.1
2018-Jul-08 19:30N 51°29' E 001°45'0 0.0
2018-Jul-08 19:00N 51°29' E 001°45'0 0.3
2018-Jul-08 18:30N 51°29' E 001°45'1 1.3
2018-Jul-08 18:00N 51°29' E 001°46'0 0.1
2018-Jul-08 17:30N 51°29' E 001°46'0 0.0
2018-Jul-08 16:12N 51°29' E 001°46'0 0.0
2018-Jul-08 16:00N 51°29' E 001°46'0 0.0
2018-Jul-08 15:27N 51°29' E 001°46'0 0.0
2018-Jul-08 14:54N 51°29' E 001°46'0 0.0
2018-Jul-08 14:30N 51°29' E 001°46'0 0.0
2018-Jul-08 13:57N 51°29' E 001°46'0 0.0
2018-Jul-08 13:24N 51°29' E 001°46'0 0.0
2018-Jul-08 12:57N 51°29' E 001°46'0 0.3
2018-Jul-08 12:24N 51°29' E 001°46'0 0.2
2018-Jul-08 12:00N 51°29' E 001°46'0 0.1
2018-Jul-08 11:30N 51°29' E 001°46'0 0.0
2018-Jul-08 11:00N 51°29' E 001°46'0 0.0
2018-Jul-08 10:30N 51°29' E 001°46'0 0.0
2018-Jul-08 09:51N 51°29' E 001°46'0 0.0
2018-Jul-08 09:27N 51°29' E 001°46'0 0.0
2018-Jul-08 08:57N 51°29' E 001°46'0 0.0
2018-Jul-08 08:30N 51°29' E 001°46'0 0.1
2018-Jul-08 08:00N 51°29' E 001°46'0 0.1
2018-Jul-08 07:30N 51°29' E 001°46'0 0.1
2018-Jul-08 07:00N 51°29' E 001°46'0 0.1
2018-Jul-08 06:21N 51°29' E 001°46'0 0.0
2018-Jul-08 06:00N 51°29' E 001°46'0 0.1
2018-Jul-08 05:30N 51°29' E 001°46'0 0.0
2018-Jul-08 05:00N 51°29' E 001°46'0 0.0
2018-Jul-08 04:30N 51°29' E 001°46'1 2.2
2018-Jul-08 04:00N 51°28' E 001°47'4 8.2
2018-Jul-08 03:30N 51°28' E 001°54'510.9
2018-Jul-08 03:00N 51°26' E 002°02'611.3
2018-Jul-08 02:30N 51°23' E 002°10'611.5
2018-Jul-08 02:00N 51°21' E 002°18'612.0
2018-Jul-08 01:30N 51°22' E 002°27'611.9
2018-Jul-08 01:00N 51°22' E 002°37'611.4
2018-Jul-08 00:30N 51°22' E 002°46'611.1
2018-Jul-08 00:00N 51°23' E 002°55'611.5
2018-Jul-07 23:28N 51°24' E 003°05'611.9
2018-Jul-07 22:59N 51°25' E 003°14'611.9
2018-Jul-07 22:30N 51°25' E 003°23'612.1
2018-Jul-07 22:00N 51°26' E 003°32'510.2
2018-Jul-07 21:30N 51°27' E 003°40'0 0.1
2018-Jul-07 20:57N 51°27' E 003°40'0 0.0
2018-Jul-07 20:18N 51°27' E 003°40'0 0.0
2018-Jul-07 19:48N 51°27' E 003°40'0 0.0
2018-Jul-07 19:27N 51°27' E 003°40'0 0.0
2018-Jul-07 18:57N 51°27' E 003°40'0 0.0
2018-Jul-07 18:24N 51°27' E 003°40'0 0.0
2018-Jul-07 18:00N 51°27' E 003°40'0 0.0
2018-Jul-07 17:27N 51°27' E 003°40'0 0.0
2018-Jul-07 16:57N 51°27' E 003°40'0 0.0
2018-Jul-07 16:27N 51°27' E 003°40'0 0.0
2018-Jul-07 15:57N 51°27' E 003°40'0 0.0
2018-Jul-07 15:30N 51°27' E 003°40'0 0.0
2018-Jul-07 14:57N 51°27' E 003°40'0 0.0
2018-Jul-07 14:30N 51°27' E 003°40'0 0.0
2018-Jul-07 13:51N 51°27' E 003°40'0 0.0
2018-Jul-07 13:03N 51°27' E 003°40'0 0.0
2018-Jul-07 12:51N 51°27' E 003°40'0 0.0
2018-Jul-07 11:27N 51°27' E 003°40'0 0.0
2018-Jul-07 10:54N 51°27' E 003°40'0 0.0
2018-Jul-07 10:27N 51°27' E 003°40'0 0.0
2018-Jul-07 09:33N 51°27' E 003°40'0 0.0
2018-Jul-07 09:27N 51°27' E 003°40'0 0.0
2018-Jul-07 09:00N 51°27' E 003°40'0 0.0
2018-Jul-07 06:30N 51°27' E 003°40'0 0.0
2018-Jul-07 05:57N 51°27' E 003°40'0 0.0
2018-Jul-07 04:45N 51°27' E 003°40'0 0.1
2018-Jul-07 04:00N 51°27' E 003°40'3 5.4
2018-Jul-07 03:31N 51°26' E 003°37'612.3
2018-Jul-07 03:00N 51°25' E 003°27'611.4
2018-Jul-07 02:30N 51°24' E 003°18'510.9
2018-Jul-07 02:00N 51°24' E 003°09'510.2
2018-Jul-07 01:30N 51°24' E 003°01'510.2
2018-Jul-07 00:59N 51°22' E 002°53'510.5
2018-Jul-07 00:30N 51°22' E 002°45'  

Dump ship's entire track history